Time;durP1;ratioP1;P1;durP2;ratioP2;P2;SDS_P1;SDS_P2;PMS_P1;PMS_P2;Temp;Humidity;BMP_temperature;BMP_pressure;BME280_temperature;BME280_humidity;BME280_pressure;Samples;Min_cycle;Max_cycle;Signal;HPM_P1;HPM_P2
2023/04/15 00:00:10;;;;;;;6.60;5.90;;;7.30;99.90;;;-141.84;87.12;19417.56;5072430;28;20209;-64
2023/04/15 00:02:40;;;;;;;6.00;5.40;;;7.30;99.90;;;-141.84;86.93;19380.97;5074575;28;20208;-66
2023/04/15 00:05:09;;;;;;;6.30;5.70;;;7.30;99.90;;;-141.84;87.30;19354.56;5074684;28;20315;-66
2023/04/15 00:07:37;;;;;;;6.80;6.10;;;7.20;99.90;;;-141.84;87.24;19350.50;5074238;28;20204;-65
2023/04/15 00:10:07;;;;;;;6.80;6.20;;;7.20;99.90;;;-141.84;87.49;19366.75;5074543;28;20200;-66
2023/04/15 00:12:35;;;;;;;8.13;7.33;;;7.20;99.90;;;-141.84;87.51;19368.78;5074830;28;20201;-64
2023/04/15 00:15:05;;;;;;;8.90;8.00;;;7.20;99.90;;;-141.84;87.30;19354.56;5074437;28;20196;-67
2023/04/15 00:17:33;;;;;;;8.50;7.53;;;7.20;99.90;;;-141.84;87.54;19376.91;5074473;28;20212;-65
2023/04/15 00:20:05;;;;;;;9.50;8.57;;;7.20;99.90;;;-141.84;87.26;19393.16;5074292;28;20668;-65
2023/04/15 00:22:33;;;;;;;8.93;8.03;;;7.20;99.90;;;-141.84;87.65;19352.53;5074531;28;20196;-66
2023/04/15 00:25:02;;;;;;;9.37;7.53;;;7.20;99.90;;;-141.84;88.14;19380.97;5074043;28;20236;-67
2023/04/15 00:27:30;;;;;;;7.43;6.40;;;7.10;99.90;;;-141.84;88.70;19380.97;5074407;28;20647;-65
2023/04/15 00:29:58;;;;;;;8.33;7.33;;;7.10;99.90;;;-141.84;87.92;19368.78;5074292;28;20201;-65
2023/04/15 00:32:27;;;;;;;9.27;8.10;;;7.10;99.90;;;-141.84;87.17;19380.97;5074998;28;20205;-66
2023/04/15 00:34:55;;;;;;;9.10;8.10;;;7.10;99.90;;;-141.84;87.83;19372.84;5074889;28;20205;-65
2023/04/15 00:37:24;;;;;;;8.63;7.73;;;7.10;99.90;;;-141.84;88.38;19348.47;5074328;28;20212;-66
2023/04/15 00:39:52;;;;;;;8.83;7.60;;;7.10;99.90;;;-141.84;88.95;19350.50;5074387;28;20201;-66
2023/04/15 00:42:21;;;;;;;8.13;7.33;;;7.10;99.90;;;-141.84;89.70;19342.34;5072454;28;20204;-66
2023/04/15 00:44:49;;;;;;;7.67;6.87;;;7.00;99.90;;;-141.84;89.40;19358.63;5054625;28;20221;-66
2023/04/15 00:47:19;;;;;;;7.20;6.50;;;7.10;99.90;;;-141.84;89.39;19354.56;5074097;28;20201;-66
2023/04/15 00:49:47;;;;;;;7.00;6.30;;;7.10;99.90;;;-141.84;88.56;19368.78;5074164;28;20213;-66
2023/04/15 00:52:16;;;;;;;8.03;6.30;;;7.10;99.90;;;-141.84;88.22;19362.69;5073946;28;20671;-67
2023/04/15 00:54:45;;;;;;;7.17;6.47;;;7.10;99.90;;;-141.84;88.90;19378.94;5074267;28;20209;-65
2023/04/15 00:57:14;;;;;;;6.63;5.93;;;7.10;99.90;;;-141.84;88.01;19393.16;5073689;28;20201;-66
2023/04/15 00:59:42;;;;;;;6.67;5.73;;;7.10;99.90;;;-141.84;88.46;19366.75;5073521;28;20212;-66
2023/04/15 01:02:10;;;;;;;6.60;5.87;;;7.00;99.90;;;-141.84;89.07;19344.41;5073630;28;20201;-67
2023/04/15 01:04:39;;;;;;;7.17;6.00;;;7.10;99.90;;;-141.84;89.16;19387.06;5073664;28;20327;-65
2023/04/15 01:07:07;;;;;;;6.53;5.93;;;7.10;99.90;;;-141.84;89.48;19340.31;5073622;28;20208;-64
2023/04/15 01:09:35;;;;;;;6.43;5.70;;;7.10;99.90;;;-141.84;89.41;19334.22;5073661;28;20197;-66
2023/04/15 01:12:05;;;;;;;6.63;5.93;;;7.10;99.90;;;-141.84;89.13;19344.41;5073571;28;20688;-65
2023/04/15 01:14:34;;;;;;;6.43;5.83;;;7.10;99.90;;;-141.84;88.59;19346.44;5072973;28;20193;-65
2023/04/15 01:17:02;;;;;;;7.30;6.47;;;7.10;99.90;;;-141.84;88.39;19358.63;5073486;28;20201;-66
2023/04/15 01:19:31;;;;;;;7.30;6.17;;;7.10;99.90;;;-141.84;89.15;19342.34;5073310;28;20200;-65
2023/04/15 01:21:59;;;;;;;7.13;6.43;;;7.10;99.90;;;-141.84;89.57;19328.13;5073304;28;20284;-65
2023/04/15 01:24:32;;;;;;;7.17;5.90;;;7.00;99.90;;;-141.84;90.14;19368.78;5072670;28;20249;-65
2023/04/15 01:27:02;;;;;;;6.73;6.03;;;7.00;99.90;;;-141.84;89.71;19334.22;5073171;28;20196;-66
2023/04/15 01:29:31;;;;;;;6.27;5.63;;;7.00;99.90;;;-141.84;89.43;19358.63;5072471;28;20684;-66
2023/04/15 01:31:59;;;;;;;7.03;6.33;;;7.10;99.90;;;-141.84;88.93;19352.53;5072960;28;20207;-66
2023/04/15 01:34:28;;;;;;;6.07;5.47;;;7.10;99.90;;;-141.84;88.91;19334.22;5072986;28;20197;-65
2023/04/15 01:36:56;;;;;;;6.77;5.90;;;7.00;99.90;;;-141.84;89.54;19370.81;5072903;28;20281;-68
2023/04/15 01:39:24;;;;;;;6.70;6.00;;;7.00;99.90;;;-141.84;89.16;19338.28;5072927;28;20489;-65
2023/04/15 01:41:52;;;;;;;7.13;6.20;;;7.00;99.90;;;-141.84;89.86;19328.13;5072568;28;20204;-64
2023/04/15 01:44:22;;;;;;;6.97;6.27;;;7.00;99.90;;;-141.84;89.86;19362.69;5053927;28;20228;-66
2023/04/15 01:46:50;;;;;;;7.80;6.80;;;7.00;99.90;;;-141.84;90.11;19344.41;5052750;28;20209;-66
2023/04/15 01:49:18;;;;;;;7.17;6.47;;;7.00;99.90;;;-141.84;90.30;19336.25;5052703;28;20228;-64
2023/04/15 01:51:48;;;;;;;7.00;6.13;;;7.00;99.90;;;-141.84;90.35;19315.94;5052804;28;20201;-64
2023/04/15 01:54:16;;;;;;;7.30;6.33;;;7.00;99.90;;;-141.84;90.07;19342.34;5052447;28;20689;-65
2023/04/15 01:56:44;;;;;;;7.30;6.57;;;7.00;99.90;;;-141.84;90.29;19380.97;5052616;28;20552;-65
2023/04/15 01:59:12;;;;;;;7.63;6.50;;;7.00;99.90;;;-141.84;89.64;19354.56;5062401;28;20204;-66
2023/04/15 02:01:42;;;;;;;7.43;6.63;;;7.00;99.90;;;-141.84;89.61;19328.13;5072504;28;20204;-65
2023/04/15 02:04:15;;;;;;;7.20;6.47;;;7.00;99.90;;;-141.84;89.81;19320.00;5072076;28;20703;-66
2023/04/15 02:06:43;;;;;;;7.47;6.40;;;7.00;99.90;;;-141.84;90.23;19309.84;5072378;28;20235;-66
2023/04/15 02:09:12;;;;;;;6.97;6.27;;;7.00;99.90;;;-141.84;90.85;19317.97;5072389;28;20577;-65
2023/04/15 02:11:40;;;;;;;7.23;6.13;;;6.90;99.90;;;-141.84;91.30;19328.13;5072406;28;20201;-64
2023/04/15 02:14:08;;;;;;;6.83;6.03;;;6.90;99.90;;;-141.84;91.67;19311.88;5071703;28;20223;-65
2023/04/15 02:16:36;;;;;;;6.17;5.47;;;6.90;99.90;;;-141.84;91.14;19338.28;5072408;28;20206;-65
2023/04/15 02:19:06;;;;;;;6.00;5.37;;;7.00;99.90;;;-141.84;89.48;19303.75;5072271;28;20617;-64
2023/04/15 02:21:35;;;;;;;6.17;5.23;;;7.00;99.90;;;-141.84;89.26;19299.69;5071922;28;20231;-64
2023/04/15 02:24:03;;;;;;;6.43;5.47;;;7.00;99.90;;;-141.84;88.72;19309.84;5071853;28;20232;-65
2023/04/15 02:26:32;;;;;;;6.27;5.50;;;7.00;99.90;;;-141.84;89.34;19324.06;5071952;28;20223;-65
2023/04/15 02:29:00;;;;;;;6.60;5.47;;;6.90;99.90;;;-141.84;89.22;19338.28;5071438;28;20200;-65
2023/04/15 02:31:29;;;;;;;6.10;5.30;;;6.90;99.90;;;-141.84;89.80;19328.13;5071795;28;20340;-66
2023/04/15 02:33:57;;;;;;;5.50;4.83;;;6.90;99.90;;;-141.84;89.22;19305.78;5071728;28;20684;-65
2023/04/15 02:36:28;;;;;;;6.17;4.87;;;6.90;99.90;;;-141.84;89.52;19336.25;5072054;28;20204;-65
2023/04/15 02:38:56;;;;;;;6.13;5.27;;;6.90;99.90;;;-141.84;90.08;19338.28;5072800;28;20193;-64
2023/04/15 02:41:26;;;;;;;5.93;5.13;;;6.90;99.90;;;-141.84;90.21;19293.59;5071882;28;20208;-64
2023/04/15 02:43:55;;;;;;;5.20;4.60;;;6.80;99.90;;;-141.84;90.60;19289.53;5057364;28;20212;-66
2023/04/15 02:46:23;;;;;;;4.93;4.43;;;6.80;99.90;;;-141.84;90.67;19279.38;5051842;28;20232;-64
2023/04/15 02:48:52;;;;;;;5.07;4.47;;;6.80;99.90;;;-141.84;90.93;19317.97;5051883;28;20238;-65
2023/04/15 02:51:22;;;;;;;4.80;4.40;;;6.80;99.90;;;-141.84;91.21;19332.19;5052040;28;20209;-65
2023/04/15 02:53:51;;;;;;;4.90;4.40;;;6.80;99.90;;;-141.84;90.53;19332.19;5051428;28;20599;-64
2023/04/15 02:56:22;;;;;;;5.30;4.60;;;6.80;99.90;;;-141.84;90.73;19309.84;5050900;28;20201;-64
2023/04/15 02:58:50;;;;;;;5.00;4.30;;;6.90;99.90;;;-141.84;90.96;19291.56;5058306;28;20201;-64
2023/04/15 03:01:19;;;;;;;5.10;4.53;;;6.80;99.90;;;-141.84;90.98;19281.41;5071821;28;20221;-65
2023/04/15 03:03:47;;;;;;;4.87;4.47;;;6.80;99.90;;;-141.84;89.66;19326.09;5071765;28;20207;-64
2023/04/15 03:06:15;;;;;;;5.27;4.77;;;6.90;99.90;;;-141.84;89.13;19311.88;5071629;28;20226;-64
2023/04/15 03:08:44;;;;;;;5.10;4.47;;;6.90;99.90;;;-141.84;89.49;19301.72;5071774;28;20205;-64
2023/04/15 03:11:15;;;;;;;5.23;4.73;;;6.90;99.90;;;-141.84;89.84;19326.09;5071510;28;20204;-64
2023/04/15 03:13:43;;;;;;;4.97;4.47;;;6.90;99.90;;;-141.84;89.85;19299.69;5071044;28;20691;-65
2023/04/15 03:16:11;;;;;;;6.07;5.20;;;6.80;99.90;;;-141.84;89.79;19303.75;5071334;28;20551;-64
2023/04/15 03:18:39;;;;;;;6.00;5.30;;;6.90;99.90;;;-141.84;89.73;19334.22;5071502;28;20200;-66
2023/04/15 03:21:07;;;;;;;6.57;5.83;;;6.80;99.90;;;-141.84;90.20;19299.69;5071214;28;20204;-65
2023/04/15 03:23:35;;;;;;;6.83;6.13;;;6.80;99.90;;;-141.84;90.53;19293.59;5071298;28;20204;-65
2023/04/15 03:26:05;;;;;;;7.30;6.27;;;6.80;99.90;;;-141.84;90.53;19309.84;5071372;28;20580;-64
2023/04/15 03:28:34;;;;;;;7.10;6.23;;;6.80;99.90;;;-141.84;89.41;19295.63;5071134;28;20208;-64
2023/04/15 03:31:02;;;;;;;8.23;6.93;;;6.90;99.90;;;-141.84;89.62;19293.59;5070867;28;20676;-65
2023/04/15 03:33:30;;;;;;;7.83;6.87;;;6.90;99.90;;;-141.84;89.67;19324.06;5071351;28;20247;-64
2023/04/15 03:35:59;;;;;;;7.83;6.57;;;6.90;99.90;;;-141.84;89.84;19309.84;5071271;28;20197;-64
2023/04/15 03:38:27;;;;;;;8.10;6.80;;;6.80;99.90;;;-141.84;89.26;19334.22;5071451;28;20211;-64
2023/04/15 03:40:55;;;;;;;8.43;6.77;;;6.90;99.90;;;-141.84;89.84;19297.66;5071352;28;20204;-65
2023/04/15 03:43:23;;;;;;;6.87;6.07;;;6.80;99.90;;;-141.84;90.55;19289.53;5060765;28;20202;-64
2023/04/15 03:45:53;;;;;;;7.20;5.70;;;6.80;99.90;;;-141.84;91.05;19287.50;5050961;28;20224;-65
2023/04/15 03:48:21;;;;;;;8.57;7.13;;;6.80;99.90;;;-141.84;91.19;19328.13;5051277;28;20206;-65
2023/04/15 03:50:49;;;;;;;8.77;6.47;;;6.80;99.90;;;-141.84;91.15;19289.53;5050911;28;20734;-66
2023/04/15 03:53:18;;;;;;;7.17;5.97;;;6.80;99.90;;;-141.84;91.08;19293.59;5050834;28;20259;-65
2023/04/15 03:55:46;;;;;;;8.43;7.07;;;6.90;99.90;;;-141.84;90.75;19334.22;5050892;28;20198;-64
2023/04/15 03:58:14;;;;;;;7.73;6.27;;;6.80;99.90;;;-141.84;90.69;19338.28;5053099;28;20209;-65
2023/04/15 04:00:42;;;;;;;6.90;6.10;;;6.80;99.90;;;-141.84;91.03;19307.81;5070692;28;20204;-66
2023/04/15 04:03:12;;;;;;;6.27;5.33;;;6.80;99.90;;;-141.84;91.11;19328.13;5071158;28;20204;-64
2023/04/15 04:05:41;;;;;;;7.60;6.33;;;6.80;99.90;;;-141.84;91.37;19299.69;5070990;28;20280;-66
2023/04/15 04:08:12;;;;;;;7.70;6.40;;;6.80;99.90;;;-141.84;91.53;19330.16;5073057;28;20448;-65
2023/04/15 04:10:40;;;;;;;7.57;6.77;;;6.80;99.90;;;-141.84;91.28;19307.81;5074715;28;20185;-64
2023/04/15 04:13:08;;;;;;;8.03;6.30;;;6.80;99.90;;;-141.84;91.39;19293.59;5074488;28;20258;-64
2023/04/15 04:15:37;;;;;;;7.43;5.93;;;6.80;99.90;;;-141.84;91.28;19313.91;5074272;28;20215;-64
2023/04/15 04:18:05;;;;;;;7.50;6.20;;;6.80;99.90;;;-141.84;91.05;19299.69;5074471;28;20197;-64
2023/04/15 04:20:35;;;;;;;7.83;6.40;;;6.80;99.90;;;-141.84;90.29;19330.16;5074164;28;20197;-65
2023/04/15 04:23:03;;;;;;;7.00;6.30;;;6.90;99.90;;;-141.84;89.75;19326.09;5074078;28;20523;-64
2023/04/15 04:25:31;;;;;;;7.60;6.50;;;6.90;99.90;;;-141.84;90.31;19317.97;5073842;28;20243;-65
2023/04/15 04:28:00;;;;;;;7.17;6.30;;;6.90;99.90;;;-141.84;90.34;19303.75;5074239;28;20224;-64
2023/04/15 04:30:28;;;;;;;8.43;7.07;;;6.90;99.90;;;-141.84;90.77;19281.41;5054031;28;20208;-64
2023/04/15 04:32:56;;;;;;;8.77;7.27;;;6.90;99.90;;;-141.84;90.86;19303.75;5054152;28;20216;-65
2023/04/15 04:35:24;;;;;;;8.07;6.90;;;6.90;99.90;;;-141.84;90.67;19332.19;5054152;28;20656;-65
2023/04/15 04:37:53;;;;;;;7.77;6.63;;;6.90;99.90;;;-141.84;90.21;19301.72;5054082;28;20632;-65
2023/04/15 04:40:22;;;;;;;8.63;7.30;;;6.90;99.90;;;-141.84;90.34;19297.66;5054004;28;20228;-65
2023/04/15 04:42:50;;;;;;;8.03;7.00;;;6.90;99.90;;;-141.84;90.73;19311.88;5053839;28;20280;-65
2023/04/15 04:45:18;;;;;;;8.77;7.10;;;6.90;99.90;;;-141.84;90.48;19309.84;5053694;28;20205;-64
2023/04/15 04:47:46;;;;;;;8.57;7.37;;;6.90;99.90;;;-141.84;90.82;19303.75;5053608;28;20600;-64
2023/04/15 04:50:15;;;;;;;8.53;7.40;;;6.90;99.90;;;-141.84;90.43;19326.09;5053716;28;20216;-65
2023/04/15 04:52:43;;;;;;;8.77;7.60;;;7.00;99.90;;;-141.84;89.84;19346.44;5053906;28;20296;-65
2023/04/15 04:55:13;;;;;;;8.90;6.93;;;7.00;99.90;;;-141.84;89.77;19320.00;5053622;28;20217;-65
2023/04/15 04:57:41;;;;;;;8.50;6.90;;;7.00;99.90;;;-141.84;89.96;19307.81;5053682;28;20224;-65
2023/04/15 05:00:11;;;;;;;7.63;6.50;;;6.90;99.90;;;-141.84;89.86;19342.34;5071407;28;20216;-65
2023/04/15 05:02:40;;;;;;;8.13;6.77;;;7.00;99.90;;;-141.84;89.89;19287.50;5073559;28;20286;-64
2023/04/15 05:05:10;;;;;;;8.63;7.43;;;6.90;99.90;;;-141.84;90.25;19291.56;5073733;28;20203;-64
2023/04/15 05:07:39;;;;;;;8.20;7.00;;;6.90;99.90;;;-141.84;90.69;19328.13;5073267;28;20588;-65
2023/04/15 05:10:09;;;;;;;7.67;6.77;;;6.90;99.90;;;-141.84;89.96;19315.94;5073690;28;20205;-65
2023/04/15 05:12:38;;;;;;;8.03;7.07;;;7.00;99.90;;;-141.84;89.48;19317.97;5073513;28;20197;-63
2023/04/15 05:15:08;;;;;;;9.20;6.90;;;7.00;99.90;;;-141.84;90.08;19334.22;5073266;28;20201;-64
2023/04/15 05:17:37;;;;;;;8.03;7.23;;;7.00;99.90;;;-141.84;90.50;19293.59;5073691;28;20228;-64
2023/04/15 05:20:06;;;;;;;8.50;6.70;;;7.00;99.90;;;-141.84;90.68;19301.72;5072460;28;20208;-65
2023/04/15 05:22:35;;;;;;;8.57;7.67;;;7.00;99.90;;;-141.84;91.15;19320.00;5073230;28;20219;-64
2023/04/15 05:25:03;;;;;;;8.07;7.10;;;7.00;99.90;;;-141.84;91.38;19320.00;5072723;28;20283;-64
2023/04/15 05:27:32;;;;;;;8.70;7.80;;;7.00;99.90;;;-141.84;91.71;19305.78;5072925;28;20225;-65
2023/04/15 05:30:01;;;;;;;7.90;7.07;;;7.00;99.90;;;-141.84;91.46;19311.88;5072697;28;20215;-64
2023/04/15 05:32:30;;;;;;;7.83;7.03;;;7.00;99.90;;;-141.84;90.50;19309.84;5072796;28;20208;-64
2023/04/15 05:34:58;;;;;;;8.37;7.33;;;7.10;99.90;;;-141.84;90.57;19320.00;5072753;28;20695;-64
2023/04/15 05:37:26;;;;;;;9.10;7.67;;;7.00;99.90;;;-141.84;91.20;19289.53;5073068;28;20207;-64
2023/04/15 05:39:54;;;;;;;8.43;7.33;;;7.00;99.90;;;-141.84;90.90;19326.09;5072875;28;20197;-65
2023/04/15 05:42:22;;;;;;;8.73;7.50;;;7.00;99.90;;;-141.84;91.19;19273.28;5070850;28;20205;-64
2023/04/15 05:44:50;;;;;;;7.93;7.13;;;7.00;99.90;;;-141.84;90.61;19299.69;5052471;28;20577;-64
2023/04/15 05:47:20;;;;;;;8.63;7.73;;;7.10;99.90;;;-141.84;90.73;19301.72;5052659;28;20248;-64
2023/04/15 05:49:48;;;;;;;8.23;7.27;;;7.10;99.90;;;-141.84;90.00;19344.41;5052971;28;20251;-64
2023/04/15 05:52:16;;;;;;;7.67;6.87;;;7.20;99.90;;;-141.84;90.22;19313.91;5052768;28;20209;-64
2023/04/15 05:54:45;;;;;;;7.73;6.93;;;7.10;99.90;;;-141.84;90.13;19303.75;5052303;28;20212;-64
2023/04/15 05:57:13;;;;;;;8.10;6.70;;;7.10;99.90;;;-141.84;90.58;19295.63;5052527;28;20208;-64
2023/04/15 05:59:41;;;;;;;7.33;6.60;;;7.10;99.90;;;-141.84;90.83;19309.84;5065792;28;20677;-64
2023/04/15 06:02:10;;;;;;;7.67;6.87;;;7.20;99.90;;;-141.84;91.14;19328.13;5072345;28;20212;-65
2023/04/15 06:04:40;;;;;;;7.93;6.90;;;7.10;99.90;;;-141.84;91.30;19303.75;5072298;28;20209;-65
2023/04/15 06:07:08;;;;;;;7.87;7.07;;;7.10;99.90;;;-141.84;91.50;19301.72;5072390;28;20224;-64
2023/04/15 06:09:36;;;;;;;6.83;6.13;;;7.10;99.90;;;-141.84;90.85;19354.56;5071557;28;20208;-65
2023/04/15 06:12:10;;;;;;;6.70;6.00;;;7.20;99.90;;;-141.84;90.41;19338.28;5071859;28;20189;-60
2023/04/15 06:14:39;;;;;;;6.60;6.00;;;7.20;99.90;;;-141.84;90.19;19326.09;5071811;28;20185;-59
2023/04/15 06:17:07;;;;;;;6.97;6.27;;;7.20;99.90;;;-141.84;89.91;19293.59;5071960;28;20543;-59
2023/04/15 06:19:36;;;;;;;6.70;6.00;;;7.20;99.90;;;-141.84;90.00;19340.31;5071603;28;20212;-59
2023/04/15 06:22:06;;;;;;;6.67;6.00;;;7.30;99.90;;;-141.84;89.89;19330.16;5072199;28;20207;-60
2023/04/15 06:24:36;;;;;;;6.70;5.87;;;7.40;99.90;;;-141.84;90.13;19360.66;5071705;28;20232;-59
2023/04/15 06:27:05;;;;;;;6.80;6.10;;;7.30;99.90;;;-141.84;90.17;19370.81;5072217;28;20223;-58
2023/04/15 06:29:33;;;;;;;7.40;6.70;;;7.40;99.90;;;-141.84;90.30;19362.69;5071412;28;20219;-60
2023/04/15 06:32:01;;;;;;;7.53;6.73;;;7.40;99.90;;;-141.84;90.55;19350.50;5071936;28;20211;-59
2023/04/15 06:34:29;;;;;;;7.47;6.77;;;7.30;99.90;;;-141.84;90.14;19309.84;5072009;28;20204;-60
2023/04/15 06:36:57;;;;;;;7.37;6.40;;;7.30;99.90;;;-141.84;90.44;19334.22;5071998;28;20204;-60
2023/04/15 06:39:27;;;;;;;7.77;6.67;;;7.30;99.90;;;-141.84;91.05;19313.91;5071938;28;20197;-58
2023/04/15 06:41:55;;;;;;;6.80;6.10;;;7.30;99.90;;;-141.84;91.74;19338.28;5071980;28;20200;-62
2023/04/15 06:44:23;;;;;;;6.87;6.07;;;7.30;99.90;;;-141.84;91.35;19346.44;5053434;28;20208;-60
2023/04/15 06:46:51;;;;;;;6.73;6.03;;;7.40;99.90;;;-141.84;91.22;19309.84;5051375;28;20699;-61
2023/04/15 06:49:20;;;;;;;7.10;6.13;;;7.40;99.90;;;-141.84;91.19;19346.44;5051948;28;20205;-59
2023/04/15 06:51:48;;;;;;;7.00;6.03;;;7.40;99.90;;;-141.84;90.55;19346.44;5051976;28;20649;-61
2023/04/15 06:54:16;;;;;;;6.10;5.50;;;7.50;99.90;;;-141.84;90.03;19368.78;5051890;28;20204;-59
2023/04/15 06:56:46;;;;;;;7.57;5.73;;;7.50;99.90;;;-141.84;90.21;19364.72;5051771;28;20197;-59
2023/04/15 06:59:14;;;;;;;6.47;5.87;;;7.50;99.90;;;-141.84;90.69;19340.31;5061710;28;20211;-59
2023/04/15 07:01:42;;;;;;;7.80;6.60;;;7.50;99.90;;;-141.84;90.41;19376.91;5071297;28;20679;-61
2023/04/15 07:04:11;;;;;;;7.23;6.30;;;7.50;99.90;;;-141.84;90.28;19356.59;5071688;28;20201;-60
2023/04/15 07:06:40;;;;;;;6.87;6.13;;;7.50;99.90;;;-141.84;90.28;19346.44;5071314;28;20599;-59
2023/04/15 07:09:08;;;;;;;7.93;6.73;;;7.50;99.90;;;-141.84;90.52;19354.56;5071537;28;20216;-60
2023/04/15 07:11:37;;;;;;;6.83;6.03;;;7.60;99.90;;;-141.84;90.26;19334.22;5071656;28;20201;-61
2023/04/15 07:14:06;;;;;;;8.30;6.97;;;7.60;99.90;;;-141.84;89.89;19358.63;5071423;28;20223;-59
2023/04/15 07:16:34;;;;;;;8.57;6.63;;;7.60;99.90;;;-141.84;90.67;19362.69;5071413;28;20204;-59
2023/04/15 07:19:02;;;;;;;8.10;6.37;;;7.60;99.90;;;-141.84;90.96;19322.03;5071641;28;20255;-60
2023/04/15 07:21:31;;;;;;;8.27;6.73;;;7.60;99.90;;;-141.84;90.73;19364.72;5071567;28;20212;-60
2023/04/15 07:23:59;;;;;;;8.60;7.10;;;7.60;99.90;;;-141.84;90.60;19342.34;5071316;28;20228;-58
2023/04/15 07:26:28;;;;;;;7.77;6.80;;;7.60;99.90;;;-141.84;90.30;19342.34;5071272;28;20676;-59
2023/04/15 07:28:56;;;;;;;8.23;7.07;;;7.60;99.90;;;-141.84;90.94;19332.19;5070777;28;20696;-59
2023/04/15 07:31:26;;;;;;;9.33;7.50;;;7.60;99.90;;;-141.84;91.08;19362.69;5071017;28;20576;-59
2023/04/15 07:33:54;;;;;;;10.60;7.53;;;7.60;99.90;;;-141.84;90.89;19364.72;5071232;28;20587;-59
2023/04/15 07:36:22;;;;;;;8.80;7.57;;;7.70;99.90;;;-141.84;91.43;19354.56;5071163;28;20208;-58
2023/04/15 07:38:51;;;;;;;9.43;7.93;;;7.60;99.90;;;-141.84;91.78;19338.28;5071431;28;20220;-59
2023/04/15 07:41:19;;;;;;;10.43;8.20;;;7.60;99.90;;;-141.84;91.95;19313.91;5071101;28;20296;-59
2023/04/15 07:43:48;;;;;;;10.77;8.80;;;7.70;99.90;;;-141.84;91.71;19326.09;5061116;28;20212;-59
2023/04/15 07:46:17;;;;;;;10.80;8.60;;;7.70;99.90;;;-141.84;91.04;19334.22;5054821;28;20201;-59
2023/04/15 07:48:46;;;;;;;9.73;8.27;;;7.80;99.90;;;-141.84;91.39;19366.75;5054803;28;20224;-59
2023/04/15 07:51:14;;;;;;;9.53;8.53;;;7.80;99.90;;;-141.84;91.33;19360.66;5055031;28;20218;-60
2023/04/15 07:53:43;;;;;;;9.60;8.07;;;7.80;99.90;;;-141.84;90.86;19350.50;5055079;28;20237;-59
2023/04/15 07:56:11;;;;;;;11.33;9.30;;;7.80;99.90;;;-141.84;91.50;19393.16;5054933;28;20201;-60
2023/04/15 07:58:40;;;;;;;9.73;8.40;;;7.80;99.90;;;-141.84;91.21;19372.84;5059598;28;20208;-60
2023/04/15 08:01:08;;;;;;;10.03;8.17;;;7.90;99.90;;;-141.84;91.07;19370.81;5074356;28;20209;-59
2023/04/15 08:03:37;;;;;;;9.20;8.17;;;7.90;99.90;;;-141.84;91.73;19338.28;5075006;28;20200;-60
2023/04/15 08:06:06;;;;;;;10.20;8.57;;;7.90;99.90;;;-141.84;91.70;19356.59;5074962;28;20295;-60
2023/04/15 08:08:34;;;;;;;9.57;8.53;;;7.90;99.90;;;-141.84;91.53;19346.44;5074740;28;20254;-60
2023/04/15 08:11:03;;;;;;;9.57;8.50;;;7.90;99.90;;;-141.84;92.16;19360.66;5074611;28;20201;-59
2023/04/15 08:13:31;;;;;;;11.87;9.20;;;7.90;99.90;;;-141.84;92.12;19364.72;5074456;28;20676;-60
2023/04/15 08:16:19;;;;;;;9.90;8.90;;;7.90;99.90;;;-141.84;91.80;19372.84;5074776;28;20200;-61
2023/04/15 08:18:49;;;;;;;10.50;8.73;;;8.00;99.90;;;-141.84;91.13;19391.13;5075440;28;20193;-62
2023/04/15 08:21:20;;;;;;;10.97;8.60;;;8.00;99.90;;;-141.84;91.55;19366.75;5075016;28;20211;-60
2023/04/15 08:23:50;;;;;;;9.80;8.23;;;8.00;99.90;;;-141.84;91.74;19358.63;5074375;28;20236;-60
2023/04/15 08:26:20;;;;;;;11.23;9.17;;;8.00;99.90;;;-141.84;91.64;19366.75;5074334;28;20193;-60
2023/04/15 08:28:50;;;;;;;9.47;8.43;;;8.10;99.90;;;-141.84;91.64;19395.19;5074201;28;20628;-59
2023/04/15 08:31:19;;;;;;;11.77;9.57;;;8.10;99.90;;;-141.84;91.75;19403.31;5074261;28;20197;-60
2023/04/15 08:33:48;;;;;;;10.30;9.00;;;8.10;99.90;;;-141.84;91.32;19383.00;5074073;28;20216;-60
2023/04/15 08:36:16;;;;;;;11.13;9.77;;;8.20;99.90;;;-141.84;91.49;19356.59;5060378;28;20213;-59
2023/04/15 08:38:46;;;;;;;14.27;11.53;;;8.20;99.90;;;-141.84;92.12;19326.09;5072423;28;20207;-59
2023/04/15 08:41:23;;;;;;;13.73;10.97;;;8.20;99.90;;;-141.84;92.43;19383.00;5072479;28;20661;-59
2023/04/15 08:43:58;;;;;;;13.37;10.97;;;8.20;99.90;;;-141.84;91.68;19380.97;5073496;28;20196;-60
2023/04/15 08:46:27;;;;;;;13.20;10.93;;;8.20;99.90;;;-141.84;91.93;19395.19;5070905;28;20215;-59
2023/04/15 08:48:58;;;;;;;14.87;11.83;;;8.20;99.90;;;-141.84;92.12;19378.94;5072911;28;20217;-59
2023/04/15 08:51:28;;;;;;;15.03;11.90;;;8.20;99.90;;;-141.84;91.72;19366.75;5073597;28;20232;-59
2023/04/15 08:53:59;;;;;;;15.70;12.33;;;8.30;99.90;;;-141.84;91.89;19407.38;5072621;28;20197;-60
2023/04/15 08:56:31;;;;;;;14.60;12.03;;;8.30;99.90;;;-141.84;91.58;19374.88;5073143;28;20226;-61
2023/04/15 08:59:00;;;;;;;15.53;11.77;;;8.40;99.90;;;-141.84;91.23;19389.09;5073430;28;20702;-60
2023/04/15 09:01:29;;;;;;;15.27;12.63;;;8.40;99.90;;;-141.84;91.61;19423.66;5073605;28;20664;-58
2023/04/15 09:03:59;;;;;;;16.67;13.00;;;8.40;99.90;;;-141.84;91.16;19423.66;5074435;28;20258;-60
2023/04/15 09:06:27;;;;;;;15.67;12.73;;;8.50;99.90;;;-141.84;91.37;19419.59;5073778;28;20196;-59
2023/04/15 09:08:56;;;;;;;15.67;12.63;;;8.40;99.90;;;-141.84;91.35;19409.41;5073730;28;20228;-60
2023/04/15 09:11:25;;;;;;;16.03;14.17;;;8.50;99.90;;;-141.84;91.59;19389.09;5073037;28;20208;-60
2023/04/15 09:13:54;;;;;;;16.80;13.63;;;8.50;99.90;;;-141.84;91.85;19421.63;5073171;28;20200;-60
2023/04/15 09:16:22;;;;;;;18.97;14.50;;;8.50;99.90;;;-141.84;92.28;19419.59;5073316;28;20200;-59
2023/04/15 09:18:51;;;;;;;19.87;14.17;;;8.50;99.90;;;-141.84;92.34;19378.94;5073030;28;20271;-59
2023/04/15 09:21:19;;;;;;;19.40;15.33;;;8.60;99.90;;;-141.84;92.24;19407.38;5072709;28;20216;-59
2023/04/15 09:24:00;;;;;;;17.73;15.43;;;8.60;99.90;;;-141.84;91.71;19425.69;5073314;28;20240;-59
2023/04/15 09:26:36;;;;;;;18.73;15.10;;;8.70;99.90;;;-141.84;91.68;19387.06;5073014;28;20185;-59
2023/04/15 09:29:06;;;;;;;18.03;15.27;;;8.70;99.90;;;-141.84;91.05;19443.97;5073208;28;20290;-61
2023/04/15 09:31:35;;;;;;;19.67;15.53;;;8.80;99.90;;;-141.84;91.57;19423.66;5072669;28;20249;-61
2023/04/15 09:34:03;;;;;;;20.73;16.53;;;8.70;99.90;;;-141.84;91.75;19415.50;5073128;28;20248;-61
2023/04/15 09:36:53;;;;;;;21.60;14.97;;;8.80;99.90;;;-141.84;91.47;19425.69;5071014;28;20263;-60
2023/04/15 09:39:21;;;;;;;20.43;16.80;;;8.80;99.90;;;-141.84;91.39;19427.72;5070095;28;20193;-60
2023/04/15 09:44:43;;;;;;;21.00;17.13;;;8.80;99.90;;;-141.84;91.03;19450.06;5088319;27;20581;-69
2023/04/15 09:47:28;;;;;;;21.87;17.30;;;8.90;99.90;;;-141.84;91.47;19411.44;5068697;28;20572;-69
2023/04/15 09:49:58;;;;;;;22.17;17.57;;;8.90;99.90;;;-141.84;92.01;19413.47;5068802;28;20416;-69
2023/04/15 09:52:27;;;;;;;22.43;17.30;;;8.90;99.90;;;-141.84;91.69;19429.75;5068939;28;20200;-68
2023/04/15 09:54:58;;;;;;;23.53;18.07;;;9.00;99.90;;;-141.84;91.43;19443.97;5068639;28;20734;-69
2023/04/15 09:57:34;;;;;;;24.63;19.47;;;9.00;99.90;;;-141.84;91.84;19452.09;5068421;28;20200;-70
2023/04/15 10:00:04;;;;;;;23.03;18.43;;;9.00;99.90;;;-141.84;92.01;19443.97;5061577;28;20196;-69
2023/04/15 10:02:33;;;;;;;22.87;18.40;;;9.00;99.90;;;-141.84;92.73;19423.66;5049946;28;20205;-70
2023/04/15 10:05:02;;;;;;;24.37;19.87;;;9.00;99.90;;;-141.84;92.55;19441.94;5048759;28;20205;-69
2023/04/15 10:07:31;;;;;;;24.87;20.13;;;9.00;99.90;;;-141.84;92.53;19431.78;5048744;28;20209;-70
2023/04/15 10:10:01;;;;;;;26.00;20.57;;;9.10;99.90;;;-141.84;92.69;19460.22;5048806;28;20570;-69
2023/04/15 10:12:32;;;;;;;28.50;22.20;;;9.10;99.90;;;-141.84;92.45;19433.81;5048552;28;20558;-70
2023/04/15 10:15:06;;;;;;;31.40;23.27;;;9.10;99.90;;;-141.84;92.92;19441.94;5061966;28;20613;-69
2023/04/15 10:17:36;;;;;;;27.90;22.47;;;9.10;99.90;;;-141.84;93.04;19458.19;5069497;28;20177;-69
2023/04/15 10:20:08;;;;;;;31.17;23.13;;;9.20;99.90;;;-141.84;93.31;19448.03;5069151;28;20296;-70